Time;durP1;ratioP1;P1;durP2;ratioP2;P2;SDS_P1;SDS_P2;PMS_P1;PMS_P2;Temp;Humidity;BMP_temperature;BMP_pressure;BME280_temperature;BME280_humidity;BME280_pressure;Samples;Min_cycle;Max_cycle;Signal;HPM_P1;HPM_P2
2024/01/11 00:01:14;;;;;;;;;;;11.70;99.90;;;;;;5091458;28;19916;-81
2024/01/11 00:03:40;;;;;;;;;;;11.80;99.90;;;;;;5092659;28;19936;-82
2024/01/11 00:06:06;;;;;;;;;;;11.80;99.90;;;;;;5092693;28;19924;-82
2024/01/11 00:08:32;;;;;;;;;;;11.80;99.90;;;;;;5090936;28;20221;-82
2024/01/11 00:10:58;;;;;;;;;;;11.80;99.90;;;;;;5091088;28;19908;-82
2024/01/11 00:13:24;;;;;;;;;;;11.80;99.90;;;;;;5092632;28;20358;-82
2024/01/11 00:15:50;;;;;;;;;;;11.90;99.90;;;;;;5090683;28;19958;-80
2024/01/11 00:18:17;;;;;;;;;;;11.90;99.90;;;;;;5092739;28;19998;-81
2024/01/11 00:20:43;;;;;;;;;;;11.90;99.90;;;;;;5090924;28;19963;-82
2024/01/11 00:23:09;;;;;;;;;;;12.00;99.90;;;;;;5092360;28;19959;-81
2024/01/11 00:25:34;;;;;;;;;;;12.10;99.90;;;;;;5092096;28;19908;-81
2024/01/11 00:28:02;;;;;;;;;;;12.10;99.90;;;;;;5092566;28;19961;-82
2024/01/11 00:30:27;;;;;;;;;;;12.20;99.90;;;;;;5092432;28;20240;-81
2024/01/11 00:32:53;;;;;;;;;;;12.20;99.90;;;;;;5091635;28;19980;-81
2024/01/11 00:35:20;;;;;;;;;;;12.10;99.90;;;;;;5091731;28;19908;-81
2024/01/11 00:37:46;;;;;;;;;;;12.10;99.90;;;;;;5092450;28;19948;-82
2024/01/11 00:40:12;;;;;;;;;;;12.10;99.90;;;;;;5091733;28;19970;-82
2024/01/11 00:42:38;;;;;;;;;;;12.00;99.90;;;;;;5090573;28;19916;-82
2024/01/11 00:45:04;;;;;;;;;;;12.00;99.90;;;;;;5090433;28;19912;-81
2024/01/11 00:47:30;;;;;;;;;;;12.00;99.90;;;;;;5091926;28;19915;-82
2024/01/11 00:49:56;;;;;;;;;;;12.10;99.90;;;;;;5090268;28;19908;-81
2024/01/11 00:52:21;;;;;;;;;;;12.10;99.90;;;;;;5090197;28;20387;-81
2024/01/11 00:54:48;;;;;;;;;;;12.00;99.90;;;;;;5089916;28;19915;-80
2024/01/11 00:57:14;;;;;;;;;;;12.10;99.90;;;;;;5091509;28;20321;-81
2024/01/11 00:59:40;;;;;;;;;;;12.10;99.90;;;;;;5091355;28;19908;-81
2024/01/11 01:02:06;;;;;;;;;;;12.10;99.90;;;;;;5091371;28;19916;-81
2024/01/11 01:04:32;;;;;;;;;;;12.10;99.90;;;;;;5091197;28;19915;-81
2024/01/11 01:06:58;;;;;;;;;;;12.10;99.90;;;;;;5090931;28;20332;-81
2024/01/11 01:09:24;;;;;;;;;;;12.20;99.90;;;;;;5090737;28;19987;-80
2024/01/11 01:11:50;;;;;;;;;;;12.20;99.90;;;;;;5090691;28;19912;-81
2024/01/11 01:14:16;;;;;;;;;;;12.20;99.90;;;;;;5091008;28;19937;-81
2024/01/11 01:16:41;;;;;;;;;;;12.30;99.90;;;;;;5089209;28;19915;-81
2024/01/11 01:19:07;;;;;;;;;;;12.30;99.90;;;;;;5090844;28;20389;-81
2024/01/11 01:21:33;;;;;;;;;;;12.30;99.90;;;;;;5090808;28;19969;-81
2024/01/11 01:23:59;;;;;;;;;;;12.30;99.90;;;;;;5089326;28;20315;-81
2024/01/11 01:26:24;;;;;;;;;;;12.40;99.90;;;;;;5090571;28;19908;-81
2024/01/11 01:28:50;;;;;;;;;;;12.40;99.90;;;;;;5088961;28;19935;-81
2024/01/11 01:31:16;;;;;;;;;;;12.50;99.90;;;;;;5088815;28;19959;-80
2024/01/11 01:33:42;;;;;;;;;;;12.40;99.90;;;;;;5090698;28;19959;-81
2024/01/11 01:36:08;;;;;;;;;;;12.40;99.90;;;;;;5091012;28;20293;-81
2024/01/11 01:38:35;;;;;;;;;;;12.50;99.90;;;;;;5088752;28;19996;-81
2024/01/11 01:41:01;;;;;;;;;;;12.50;99.90;;;;;;5090466;28;19969;-81
2024/01/11 01:43:33;;;;;;;;;;;12.50;99.90;;;;;;5088528;28;21485;-81
2024/01/11 01:46:00;;;;;;;;;;;12.60;99.90;;;;;;5090105;28;19912;-81
2024/01/11 01:48:26;;;;;;;;;;;12.60;99.90;;;;;;5088790;28;20049;-80
2024/01/11 01:50:52;;;;;;;;;;;12.70;99.90;;;;;;5090521;28;19956;-81
2024/01/11 01:53:19;;;;;;;;;;;12.70;99.90;;;;;;5088687;28;20015;-80
2024/01/11 01:55:45;;;;;;;;;;;12.70;99.90;;;;;;5090449;28;19912;-81
2024/01/11 01:58:12;;;;;;;;;;;12.60;99.90;;;;;;5091865;28;19969;-82
2024/01/11 02:00:37;;;;;;;;;;;12.70;99.90;;;;;;5090849;28;19961;-81
2024/01/11 02:03:04;;;;;;;;;;;12.70;99.90;;;;;;5089130;28;20326;-81
2024/01/11 02:05:30;;;;;;;;;;;12.80;99.90;;;;;;5090212;28;19915;-81
2024/01/11 02:07:57;;;;;;;;;;;12.80;99.90;;;;;;5072074;28;19915;-81
2024/01/11 02:10:23;;;;;;;;;;;12.80;99.90;;;;;;5090102;28;19908;-80
2024/01/11 02:12:49;;;;;;;;;;;12.80;99.90;;;;;;5090383;28;19924;-81
2024/01/11 02:15:15;;;;;;;;;;;12.80;99.90;;;;;;5090337;28;19912;-81
2024/01/11 02:17:42;;;;;;;;;;;12.80;99.90;;;;;;5090104;28;19956;-81
2024/01/11 02:20:08;;;;;;;;;;;12.80;99.90;;;;;;5090034;28;19908;-77
2024/01/11 02:22:38;;;;;;;;;;;12.80;99.90;;;;;;5090137;28;20025;-80
2024/01/11 02:25:04;;;;;;;;;;;12.80;99.90;;;;;;5089846;28;20010;-81
2024/01/11 02:27:30;;;;;;;;;;;12.80;99.90;;;;;;5090360;28;19956;-81
2024/01/11 02:29:56;;;;;;;;;;;12.80;99.90;;;;;;5089943;28;19953;-81
2024/01/11 02:32:22;;;;;;;;;;;12.80;99.90;;;;;;5089888;28;19908;-80
2024/01/11 02:34:48;;;;;;;;;;;12.80;99.90;;;;;;5089790;28;20394;-81
2024/01/11 02:37:14;;;;;;;;;;;12.80;99.90;;;;;;5089873;28;19912;-81
2024/01/11 02:39:40;;;;;;;;;;;12.80;99.90;;;;;;5088144;28;19947;-80
2024/01/11 02:42:08;;;;;;;;;;;12.80;99.90;;;;;;5089895;28;19957;-80
2024/01/11 02:44:34;;;;;;;;;;;12.90;99.90;;;;;;5088426;28;19989;-81
2024/01/11 02:47:01;;;;;;;;;;;12.90;99.90;;;;;;5090000;28;20273;-81
2024/01/11 02:49:27;;;;;;;;;;;12.90;99.90;;;;;;5089880;28;19912;-77
2024/01/11 02:51:52;;;;;;;;;;;12.90;99.90;;;;;;5088356;28;20054;-80
2024/01/11 02:54:18;;;;;;;;;;;12.90;99.90;;;;;;5087907;28;20045;-80
2024/01/11 02:56:44;;;;;;;;;;;12.90;99.90;;;;;;5090939;28;20057;-80
2024/01/11 02:59:10;;;;;;;;;;;12.90;99.90;;;;;;5092099;28;19908;-81
2024/01/11 03:01:36;;;;;;;;;;;12.90;99.90;;;;;;5093338;28;19961;-80
2024/01/11 03:04:01;;;;;;;;;;;13.00;99.90;;;;;;5093249;28;20361;-81
2024/01/11 03:06:27;;;;;;;;;;;13.00;99.90;;;;;;5093247;28;19908;-81
2024/01/11 03:08:53;;;;;;;;;;;13.00;99.90;;;;;;5091648;28;19908;-81
2024/01/11 03:11:19;;;;;;;;;;;13.00;99.90;;;;;;5091643;28;19995;-81
2024/01/11 03:13:45;;;;;;;;;;;13.00;99.90;;;;;;5093276;28;19908;-81
2024/01/11 03:16:10;;;;;;;;;;;13.00;99.90;;;;;;5093122;28;19995;-81
2024/01/11 03:18:36;;;;;;;;;;;13.00;99.90;;;;;;5091540;28;20049;-80
2024/01/11 03:21:02;;;;;;;;;;;13.00;99.90;;;;;;5092554;28;19912;-81
2024/01/11 03:23:28;;;;;;;;;;;13.10;99.90;;;;;;5091498;28;19908;-81
2024/01/11 03:25:54;;;;;;;;;;;13.00;99.90;;;;;;5092526;28;20278;-80
2024/01/11 03:28:20;;;;;;;;;;;13.10;99.90;;;;;;5093061;28;20308;-81
2024/01/11 03:30:45;;;;;;;;;;;13.10;99.90;;;;;;5092845;28;19918;-81
2024/01/11 03:33:11;;;;;;;;;;;13.10;99.90;;;;;;5092824;28;19908;-81
2024/01/11 03:35:40;;;;;;;;;;;13.10;99.90;;;;;;5093342;28;20340;-80
2024/01/11 03:38:06;;;;;;;;;;;13.10;99.90;;;;;;5091517;28;19908;-81
2024/01/11 03:40:32;;;;;;;;;;;13.10;99.90;;;;;;5092421;28;19920;-80
2024/01/11 03:42:58;;;;;;;;;;;13.20;99.90;;;;;;5092109;28;19969;-81
2024/01/11 03:45:23;;;;;;;;;;;13.20;99.90;;;;;;5091545;28;19908;-81
2024/01/11 03:47:50;;;;;;;;;;;13.20;99.90;;;;;;5092330;28;19912;-80
2024/01/11 03:50:16;;;;;;;;;;;13.20;99.90;;;;;;5092485;28;19916;-82
2024/01/11 03:52:42;;;;;;;;;;;13.20;99.90;;;;;;5095423;28;20370;-83
2024/01/11 03:55:08;;;;;;;;;;;13.30;99.90;;;;;;5092585;28;20383;-82
2024/01/11 03:57:34;;;;;;;;;;;13.30;99.90;;;;;;5093473;28;19912;-81
2024/01/11 04:00:00;;;;;;;;;;;13.30;99.90;;;;;;5093456;28;19908;-82
2024/01/11 04:02:26;;;;;;;;;;;13.30;99.90;;;;;;5093502;28;19916;-80
2024/01/11 04:04:53;;;;;;;;;;;13.20;99.90;;;;;;5077581;28;19916;-81
2024/01/11 04:07:19;;;;;;;;;;;13.20;99.90;;;;;;5072526;28;19974;-79
2024/01/11 04:09:45;;;;;;;;;;;13.20;99.90;;;;;;5073363;28;19989;-82
2024/01/11 04:12:11;;;;;;;;;;;13.20;99.90;;;;;;5071792;28;20353;-82
2024/01/11 04:14:40;;;;;;;;;;;13.30;99.90;;;;;;5071631;28;19928;-82
2024/01/11 04:17:07;;;;;;;;;;;13.30;99.90;;;;;;5073301;28;19915;-81
2024/01/11 04:19:32;;;;;;;;;;;13.30;99.90;;;;;;5072798;28;19934;-80
2024/01/11 04:21:58;;;;;;;;;;;13.30;99.90;;;;;;5072950;28;19992;-80
2024/01/11 04:24:24;;;;;;;;;;;13.20;99.90;;;;;;5072860;28;19912;-79
2024/01/11 04:26:50;;;;;;;;;;;13.20;99.90;;;;;;5071347;28;19916;-80
2024/01/11 04:29:16;;;;;;;;;;;13.20;99.90;;;;;;5071208;28;20042;-80
2024/01/11 04:31:42;;;;;;;;;;;13.20;99.90;;;;;;5073537;28;19908;-80
2024/01/11 04:34:07;;;;;;;;;;;13.20;99.90;;;;;;5082924;28;19916;-81
2024/01/11 04:36:33;;;;;;;;;;;13.20;99.90;;;;;;5093668;28;19915;-81
2024/01/11 04:38:59;;;;;;;;;;;13.10;99.90;;;;;;5091484;28;19908;-82
2024/01/11 04:41:26;;;;;;;;;;;13.10;99.90;;;;;;5093559;28;20070;-81
2024/01/11 04:43:52;;;;;;;;;;;13.10;99.90;;;;;;5091957;28;20398;-81
2024/01/11 04:46:19;;;;;;;;;;;13.10;99.90;;;;;;5091795;28;19908;-81
2024/01/11 04:48:46;;;;;;;;;;;13.10;99.90;;;;;;5091846;28;20276;-81
2024/01/11 04:51:12;;;;;;;;;;;13.10;99.90;;;;;;5091841;28;19916;-82
2024/01/11 04:53:42;;;;;;;;;;;13.10;99.90;;;;;;5094169;28;19931;-82
2024/01/11 04:56:09;;;;;;;;;;;13.10;99.90;;;;;;5094013;28;19914;-82
2024/01/11 04:58:40;;;;;;;;;;;13.20;99.90;;;;;;5094039;28;20039;-81
2024/01/11 05:01:06;;;;;;;;;;;13.30;99.90;;;;;;5092359;28;20337;-81
2024/01/11 05:03:32;;;;;;;;;;;13.20;99.90;;;;;;5094031;28;19908;-82
2024/01/11 05:05:58;;;;;;;;;;;13.20;99.90;;;;;;5094173;28;20014;-81
2024/01/11 05:08:25;;;;;;;;;;;13.20;99.90;;;;;;5092289;28;20315;-80
2024/01/11 05:10:51;;;;;;;;;;;13.20;99.90;;;;;;5092282;28;19908;-82
2024/01/11 05:13:17;;;;;;;;;;;13.20;99.90;;;;;;5094232;28;20315;-81
2024/01/11 05:15:43;;;;;;;;;;;13.10;99.90;;;;;;5096898;28;19953;-81
2024/01/11 05:18:10;;;;;;;;;;;13.10;99.90;;;;;;5094454;28;19908;-81
2024/01/11 05:20:36;;;;;;;;;;;13.10;99.90;;;;;;5094063;28;19955;-80
2024/01/11 05:23:02;;;;;;;;;;;13.10;99.90;;;;;;5093029;28;19952;-81
2024/01/11 05:25:28;;;;;;;;;;;13.00;99.90;;;;;;5092882;28;19958;-81
2024/01/11 05:27:53;;;;;;;;;;;13.00;99.90;;;;;;5094203;28;19916;-79
2024/01/11 05:30:19;;;;;;;;;;;13.00;99.90;;;;;;5094720;28;19908;-81
2024/01/11 05:32:45;;;;;;;;;;;12.90;99.90;;;;;;5094243;28;20359;-81
2024/01/11 05:35:11;;;;;;;;;;;12.90;99.90;;;;;;5092535;28;20368;-82
2024/01/11 05:37:37;;;;;;;;;;;12.90;99.90;;;;;;5094197;28;19908;-82
2024/01/11 05:40:06;;;;;;;;;;;12.80;99.90;;;;;;5093360;28;19923;-82
2024/01/11 05:42:32;;;;;;;;;;;12.80;99.90;;;;;;5093630;28;19916;-81
2024/01/11 05:44:57;;;;;;;;;;;12.80;99.90;;;;;;5093676;28;19908;-81
2024/01/11 05:47:24;;;;;;;;;;;12.80;99.90;;;;;;5092456;28;19999;-81
2024/01/11 05:49:49;;;;;;;;;;;12.70;99.90;;;;;;5093142;28;20267;-80
2024/01/11 05:52:15;;;;;;;;;;;12.70;99.90;;;;;;5092203;28;19908;-81
2024/01/11 05:54:41;;;;;;;;;;;12.80;99.90;;;;;;5091984;28;19908;-80
2024/01/11 05:57:07;;;;;;;;;;;12.80;99.90;;;;;;5093777;28;19965;-81
2024/01/11 05:59:33;;;;;;;;;;;12.80;99.90;;;;;;5093707;28;19908;-82
2024/01/11 06:02:00;;;;;;;;;;;12.80;99.90;;;;;;5091840;28;19917;-81
2024/01/11 06:04:26;;;;;;;;;;;12.80;99.90;;;;;;5093350;28;19908;-81
2024/01/11 06:06:52;;;;;;;;;;;12.80;99.90;;;;;;5092164;28;20006;-81
2024/01/11 06:09:18;;;;;;;;;;;12.80;99.90;;;;;;5091913;28;19966;-81
2024/01/11 06:11:43;;;;;;;;;;;12.80;99.90;;;;;;5093314;28;19915;-81
2024/01/11 06:14:09;;;;;;;;;;;12.70;99.90;;;;;;5091935;28;19966;-80
2024/01/11 06:16:36;;;;;;;;;;;12.70;99.90;;;;;;5093235;28;19947;-81
2024/01/11 06:19:02;;;;;;;;;;;12.70;99.90;;;;;;5092213;28;19915;-81
2024/01/11 06:21:28;;;;;;;;;;;12.80;99.90;;;;;;5093173;28;19916;-82
2024/01/11 06:23:54;;;;;;;;;;;12.70;99.90;;;;;;5093759;28;20462;-78
2024/01/11 06:26:20;;;;;;;;;;;12.70;99.90;;;;;;5091829;28;19999;-81
2024/01/11 06:28:45;;;;;;;;;;;12.70;99.90;;;;;;5092455;28;19994;-82
2024/01/11 06:31:11;;;;;;;;;;;12.70;99.90;;;;;;5094409;28;19908;-81
2024/01/11 06:33:37;;;;;;;;;;;12.70;99.90;;;;;;5095401;28;20007;-79
2024/01/11 06:36:09;;;;;;;;;;;12.70;99.90;;;;;;5096714;28;20328;-81
2024/01/11 06:38:35;;;;;;;;;;;12.70;99.90;;;;;;5095650;28;19963;-81
2024/01/11 06:41:01;;;;;;;;;;;12.70;99.90;;;;;;5097629;28;19928;-81
2024/01/11 06:43:27;;;;;;;;;;;12.70;99.90;;;;;;5095343;28;20339;-81
2024/01/11 06:45:53;;;;;;;;;;;12.70;99.90;;;;;;5097146;28;19908;-82
2024/01/11 06:48:19;;;;;;;;;;;12.70;99.90;;;;;;5096999;28;19923;-81
2024/01/11 06:50:45;;;;;;;;;;;12.70;99.90;;;;;;5096409;28;19913;-80
2024/01/11 06:53:11;;;;;;;;;;;12.70;99.90;;;;;;5094950;28;19908;-80
2024/01/11 06:55:37;;;;;;;;;;;12.70;99.90;;;;;;5095812;28;19908;-82
2024/01/11 06:58:03;;;;;;;;;;;12.70;99.90;;;;;;5095842;28;19908;-82
2024/01/11 07:00:29;;;;;;;;;;;12.70;99.90;;;;;;5095597;28;19908;-81
2024/01/11 07:02:55;;;;;;;;;;;12.80;99.90;;;;;;5095479;28;20271;-80
2024/01/11 07:05:21;;;;;;;;;;;12.80;99.90;;;;;;5095595;28;19908;-83
2024/01/11 07:07:46;;;;;;;;;;;12.80;99.90;;;;;;5094582;28;20006;-82
2024/01/11 07:10:12;;;;;;;;;;;12.80;99.90;;;;;;5096018;28;20473;-80
2024/01/11 07:12:41;;;;;;;;;;;12.80;99.90;;;;;;5095453;28;19908;-81
2024/01/11 07:15:07;;;;;;;;;;;12.80;99.90;;;;;;5095931;28;19912;-81
2024/01/11 07:17:33;;;;;;;;;;;12.80;99.90;;;;;;5095903;28;19912;-81
2024/01/11 07:19:59;;;;;;;;;;;12.80;99.90;;;;;;5096424;28;19922;-82
2024/01/11 07:22:25;;;;;;;;;;;12.80;99.90;;;;;;5094709;28;20352;-82
2024/01/11 07:24:51;;;;;;;;;;;12.90;99.90;;;;;;5095252;28;19961;-82
2024/01/11 07:27:22;;;;;;;;;;;12.90;99.90;;;;;;5095581;28;19908;-83
2024/01/11 07:29:47;;;;;;;;;;;12.90;99.90;;;;;;5095553;28;19908;-82
2024/01/11 07:32:13;;;;;;;;;;;12.90;99.90;;;;;;5096124;28;19913;-82
2024/01/11 07:34:39;;;;;;;;;;;12.90;99.90;;;;;;5095356;28;20328;-81
2024/01/11 07:37:05;;;;;;;;;;;12.90;99.90;;;;;;5093868;28;20390;-80
2024/01/11 07:39:31;;;;;;;;;;;12.90;99.90;;;;;;5094878;28;19936;-83
2024/01/11 07:41:57;;;;;;;;;;;12.90;99.90;;;;;;5095152;28;19991;-82
2024/01/11 07:44:23;;;;;;;;;;;12.80;99.90;;;;;;5095333;28;19908;-83
2024/01/11 07:46:49;;;;;;;;;;;12.80;99.90;;;;;;5095302;28;19913;-81
2024/01/11 07:49:15;;;;;;;;;;;12.80;99.90;;;;;;5093607;28;19912;-81
2024/01/11 07:51:41;;;;;;;;;;;12.70;99.90;;;;;;5094170;28;20317;-82
2024/01/11 07:54:06;;;;;;;;;;;12.60;99.90;;;;;;5095306;28;19908;-82
2024/01/11 07:56:32;;;;;;;;;;;12.70;99.90;;;;;;5094665;28;19908;-82
2024/01/11 07:58:58;;;;;;;;;;;12.60;99.90;;;;;;5094241;28;19908;-80
2024/01/11 08:01:24;;;;;;;;;;;12.60;99.90;;;;;;5093646;28;20276;-81
2024/01/11 08:03:52;;;;;;;;;;;12.60;99.90;;;;;;5095241;28;20356;-81
2024/01/11 08:06:17;;;;;;;;;;;12.60;99.90;;;;;;5095169;28;19966;-81
2024/01/11 08:08:43;;;;;;;;;;;12.60;99.90;;;;;;5094592;28;20307;-80
2024/01/11 08:11:10;;;;;;;;;;;12.60;99.90;;;;;;5095691;28;19909;-82
2024/01/11 08:13:37;;;;;;;;;;;12.60;99.90;;;;;;5094028;28;19912;-81
2024/01/11 08:16:04;;;;;;;;;;;12.60;99.90;;;;;;5095484;28;19977;-82
2024/01/11 08:18:31;;;;;;;;;;;12.60;99.90;;;;;;5094997;28;19908;-82
2024/01/11 08:20:57;;;;;;;;;;;12.60;99.90;;;;;;5093694;28;19915;-82
2024/01/11 08:23:23;;;;;;;;;;;12.60;99.90;;;;;;5094473;28;20011;-82
2024/01/11 08:25:49;;;;;;;;;;;12.70;99.90;;;;;;5094263;28;19908;-81
2024/01/11 08:28:15;;;;;;;;;;;12.70;99.90;;;;;;5094628;28;20010;-78
2024/01/11 08:30:42;;;;;;;;;;;12.70;99.90;;;;;;5094379;28;20005;-81
2024/01/11 08:33:08;;;;;;;;;;;12.70;99.90;;;;;;5094659;28;19951;-81
2024/01/11 08:35:35;;;;;;;;;;;12.70;99.90;;;;;;5092906;28;19915;-81
2024/01/11 08:38:01;;;;;;;;;;;12.70;99.90;;;;;;5094080;28;19908;-81
2024/01/11 08:40:27;;;;;;;;;;;12.70;99.90;;;;;;5093773;28;19972;-81
2024/01/11 08:42:53;;;;;;;;;;;12.80;99.90;;;;;;5075340;28;19920;-81
2024/01/11 08:45:19;;;;;;;;;;;12.90;99.90;;;;;;5093711;28;20295;-82
2024/01/11 08:47:46;;;;;;;;;;;13.00;99.90;;;;;;5094248;28;20410;-81
2024/01/11 08:50:15;;;;;;;;;;;13.00;99.90;;;;;;5093419;28;19927;-81
2024/01/11 08:52:41;;;;;;;;;;;13.00;99.90;;;;;;5093048;28;19909;-79
2024/01/11 08:55:08;;;;;;;;;;;13.10;99.90;;;;;;5092567;28;19908;-81
2024/01/11 08:57:35;;;;;;;;;;;13.10;99.90;;;;;;5091601;28;20084;-82
2024/01/11 09:00:02;;;;;;;;;;;13.10;99.90;;;;;;5091780;28;20466;-81
2024/01/11 09:02:27;;;;;;;;;;;13.10;99.90;;;;;;5093140;28;19923;-80
2024/01/11 09:04:53;;;;;;;;;;;13.10;99.90;;;;;;5093440;28;19908;-82
2024/01/11 09:07:20;;;;;;;;;;;13.00;99.90;;;;;;5091775;28;19944;-81
2024/01/11 09:09:46;;;;;;;;;;;13.00;99.90;;;;;;5093359;28;20268;-81
2024/01/11 09:12:12;;;;;;;;;;;13.00;99.90;;;;;;5093440;28;19962;-81
2024/01/11 09:14:39;;;;;;;;;;;13.00;99.90;;;;;;5093319;28;19950;-81
2024/01/11 09:17:06;;;;;;;;;;;13.00;99.90;;;;;;5093170;28;20095;-80
2024/01/11 09:19:33;;;;;;;;;;;13.00;99.90;;;;;;5092051;28;19908;-80
2024/01/11 09:21:59;;;;;;;;;;;13.00;99.90;;;;;;5093748;28;20264;-81
2024/01/11 09:24:25;;;;;;;;;;;13.00;99.90;;;;;;5093302;28;19911;-81
2024/01/11 09:26:51;;;;;;;;;;;12.90;99.90;;;;;;5092536;28;20046;-83
2024/01/11 09:29:17;;;;;;;;;;;13.00;99.90;;;;;;5094035;28;19915;-81
2024/01/11 09:31:44;;;;;;;;;;;13.00;99.90;;;;;;5093365;28;19920;-81
2024/01/11 09:34:10;;;;;;;;;;;13.00;99.90;;;;;;5092539;28;20003;-80
2024/01/11 09:36:38;;;;;;;;;;;12.80;99.90;;;;;;5092189;28;19916;-80
2024/01/11 09:39:05;;;;;;;;;;;12.80;99.90;;;;;;5090943;28;19923;-80
2024/01/11 09:41:31;;;;;;;;;;;12.90;99.90;;;;;;5092146;28;19926;-81
2024/01/11 09:44:00;;;;;;;;;;;12.90;99.90;;;;;;5092592;28;19951;-83
2024/01/11 09:46:26;;;;;;;;;;;12.90;99.90;;;;;;5092125;28;20010;-83
2024/01/11 09:48:53;;;;;;;;;;;12.80;99.90;;;;;;5092164;28;19908;-81
2024/01/11 09:51:19;;;;;;;;;;;12.90;99.90;;;;;;5091381;28;20331;-82
2024/01/11 09:53:46;;;;;;;;;;;12.80;99.90;;;;;;5092805;28;19955;-82
2024/01/11 09:56:12;;;;;;;;;;;12.80;99.90;;;;;;5092598;28;19951;-82
2024/01/11 09:58:42;;;;;;;;;;;12.80;99.90;;;;;;5092930;28;20226;-81
2024/01/11 10:01:10;;;;;;;;;;;12.80;99.90;;;;;;5092302;28;19965;-81
2024/01/11 10:03:36;;;;;;;;;;;12.80;99.90;;;;;;5090999;28;19921;-82
2024/01/11 10:06:03;;;;;;;;;;;12.90;99.90;;;;;;5094433;28;20432;-81
2024/01/11 10:08:30;;;;;;;;;;;12.90;99.90;;;;;;5097049;28;20389;-80
2024/01/11 10:10:55;;;;;;;;;;;12.90;99.90;;;;;;5097036;28;20007;-80
2024/01/11 10:13:28;;;;;;;;;;;12.90;99.90;;;;;;5100189;28;20363;-82
2024/01/11 10:16:08;;;;;;;;;;;12.80;99.90;;;;;;5096949;28;19969;-81
2024/01/11 10:18:34;;;;;;;;;;;12.80;99.90;;;;;;5095740;28;19908;-83
2024/01/11 10:21:00;;;;;;;;;;;12.80;99.90;;;;;;5095204;28;19916;-81
2024/01/11 10:23:28;;;;;;;;;;;12.80;99.90;;;;;;5096574;28;19916;-79
2024/01/11 10:25:57;;;;;;;;;;;12.80;99.90;;;;;;5095046;28;19908;-82
2024/01/11 10:28:25;;;;;;;;;;;12.80;99.90;;;;;;5096396;28;19908;-81
2024/01/11 10:30:54;;;;;;;;;;;12.80;99.90;;;;;;5096768;28;19908;-82
2024/01/11 10:33:23;;;;;;;;;;;12.70;99.90;;;;;;5096304;28;19927;-82
2024/01/11 10:35:49;;;;;;;;;;;12.70;99.90;;;;;;5095146;28;19915;-81
2024/01/11 10:38:16;;;;;;;;;;;12.60;99.90;;;;;;5096458;28;19973;-82
2024/01/11 10:40:42;;;;;;;;;;;12.50;99.90;;;;;;5095881;28;20269;-81
2024/01/11 10:43:12;;;;;;;;;;;12.60;99.90;;;;;;5095972;28;19916;-81
2024/01/11 10:45:41;;;;;;;;;;;12.60;99.90;;;;;;5094848;28;19916;-81
2024/01/11 10:48:12;;;;;;;;;;;12.60;99.90;;;;;;5096132;28;20363;-80
2024/01/11 10:50:41;;;;;;;;;;;12.70;99.90;;;;;;5095771;28;19948;-80
2024/01/11 10:53:17;;;;;;;;;;;12.70;99.90;;;;;;5094374;28;20022;-82
2024/01/11 10:55:43;;;;;;;;;;;12.70;99.90;;;;;;5095433;28;19981;-81
2024/01/11 10:58:10;;;;;;;;;;;12.70;99.90;;;;;;5094992;28;19916;-81
2024/01/11 11:00:36;;;;;;;;;;;12.70;99.90;;;;;;5094254;28;19912;-80
2024/01/11 11:03:03;;;;;;;;;;;12.70;99.90;;;;;;5094211;28;19916;-82
2024/01/11 11:05:31;;;;;;;;;;;12.70;99.90;;;;;;5094468;28;20376;-81
2024/01/11 11:07:58;;;;;;;;;;;12.70;99.90;;;;;;5093173;28;19919;-79
2024/01/11 11:10:25;;;;;;;;;;;12.90;99.90;;;;;;5092756;28;19908;-81
2024/01/11 11:12:51;;;;;;;;;;;13.00;99.90;;;;;;5094661;28;19908;-82
2024/01/11 11:15:17;;;;;;;;;;;13.10;99.90;;;;;;5094975;28;19908;-80
2024/01/11 11:17:43;;;;;;;;;;;13.20;99.90;;;;;;5095117;28;19947;-82
2024/01/11 11:20:13;;;;;;;;;;;13.20;99.90;;;;;;5095723;28;20360;-82
2024/01/11 11:22:42;;;;;;;;;;;13.30;99.90;;;;;;5093263;28;20303;-82
2024/01/11 11:25:23;;;;;;;;;;;13.40;99.90;;;;;;5093700;28;20237;-81
2024/01/11 11:27:49;;;;;;;;;;;13.30;99.90;;;;;;5095253;28;19998;-81
2024/01/11 11:30:18;;;;;;;;;;;13.10;99.90;;;;;;5094770;28;20107;-82
2024/01/11 11:32:45;;;;;;;;;;;13.00;99.90;;;;;;5093609;28;19915;-81
2024/01/11 11:35:10;;;;;;;;;;;12.90;99.90;;;;;;5093645;28;20350;-80
2024/01/11 11:37:37;;;;;;;;;;;12.80;99.90;;;;;;5093510;28;19995;-82
2024/01/11 11:40:04;;;;;;;;;;;12.90;99.90;;;;;;5094565;28;19924;-82
2024/01/11 11:42:36;;;;;;;;;;;12.90;99.90;;;;;;5094769;28;20332;-82
2024/01/11 11:45:02;;;;;;;;;;;13.00;99.90;;;;;;5095105;28;19908;-81
2024/01/11 11:47:35;;;;;;;;;;;13.10;99.90;;;;;;5094582;28;19965;-82
2024/01/11 11:50:06;;;;;;;;;;;13.10;99.90;;;;;;5092916;28;19990;-83
2024/01/11 11:52:32;;;;;;;;;;;13.10;99.90;;;;;;5094811;28;19960;-82
2024/01/11 11:54:59;;;;;;;;;;;13.20;99.90;;;;;;5094465;28;19908;-81
2024/01/11 11:57:27;;;;;;;;;;;13.20;99.90;;;;;;5092585;28;20001;-80
2024/01/11 11:59:55;;;;;;;;;;;13.40;99.90;;;;;;5093984;28;19923;-81
2024/01/11 12:02:22;;;;;;;;;;;13.30;99.90;;;;;;5092662;28;20252;-79
2024/01/11 12:04:48;;;;;;;;;;;13.30;99.90;;;;;;5093918;28;19978;-76
2024/01/11 12:07:15;;;;;;;;;;;13.30;99.90;;;;;;5093959;28;19990;-81
2024/01/11 12:09:41;;;;;;;;;;;13.40;99.90;;;;;;5092012;28;19908;-82
2024/01/11 12:12:07;;;;;;;;;;;13.50;99.90;;;;;;5094221;28;19909;-80
2024/01/11 12:14:34;;;;;;;;;;;13.60;99.90;;;;;;5094445;28;19909;-82
2024/01/11 12:17:00;;;;;;;;;;;13.30;99.90;;;;;;5092364;28;20025;-81
2024/01/11 12:19:26;;;;;;;;;;;13.40;99.90;;;;;;5093450;28;19966;-81
2024/01/11 12:21:51;;;;;;;;;;;13.30;99.90;;;;;;5094159;28;19955;-79
2024/01/11 12:24:17;;;;;;;;;;;13.20;99.90;;;;;;5097704;28;19908;-81
2024/01/11 12:26:43;;;;;;;;;;;13.10;99.90;;;;;;5094734;28;19931;-81
2024/01/11 12:29:10;;;;;;;;;;;13.10;99.90;;;;;;5093638;28;19912;-81
2024/01/11 12:31:35;;;;;;;;;;;13.10;99.90;;;;;;5092789;28;19919;-83
2024/01/11 12:34:03;;;;;;;;;;;13.10;99.90;;;;;;5092455;28;19908;-80
2024/01/11 12:36:29;;;;;;;;;;;13.20;99.90;;;;;;5094696;28;20288;-82
2024/01/11 12:38:55;;;;;;;;;;;13.20;99.90;;;;;;5094043;28;19908;-79
2024/01/11 12:41:25;;;;;;;;;;;13.20;99.90;;;;;;5094167;28;19916;-79
2024/01/11 12:43:51;;;;;;;;;;;13.10;99.90;;;;;;5092599;28;19915;-81
2024/01/11 12:46:17;;;;;;;;;;;13.10;99.90;;;;;;5094061;28;19912;-81
2024/01/11 12:48:43;;;;;;;;;;;13.00;99.90;;;;;;5093994;28;19990;-82
2024/01/11 12:51:09;;;;;;;;;;;13.10;99.90;;;;;;5093868;28;19974;-82
2024/01/11 12:53:35;;;;;;;;;;;13.10;99.90;;;;;;5094372;28;19922;-81
2024/01/11 12:56:11;;;;;;;;;;;13.10;99.90;;;;;;5093886;28;19954;-81
2024/01/11 12:58:39;;;;;;;;;;;13.10;99.90;;;;;;5092627;28;19954;-80
2024/01/11 13:01:08;;;;;;;;;;;13.20;99.90;;;;;;5093189;28;19908;-80
2024/01/11 13:03:35;;;;;;;;;;;13.30;99.90;;;;;;5093604;28;19967;-82
2024/01/11 13:06:09;;;;;;;;;;;13.50;99.90;;;;;;5093990;28;19909;-82
2024/01/11 13:08:39;;;;;;;;;;;13.60;99.90;;;;;;5092593;28;19962;-82
2024/01/11 13:11:06;;;;;;;;;;;13.60;99.90;;;;;;5093994;28;19908;-81
2024/01/11 13:13:36;;;;;;;;;;;13.70;99.90;;;;;;5092602;28;19915;-82
2024/01/11 13:16:12;;;;;;;;;;;13.70;99.90;;;;;;5094362;28;20423;-82
2024/01/11 13:18:39;;;;;;;;;;;13.60;99.90;;;;;;5093998;28;19908;-81
2024/01/11 13:21:06;;;;;;;;;;;13.50;99.90;;;;;;5092938;28;19915;-82
2024/01/11 13:23:32;;;;;;;;;;;13.60;99.90;;;;;;5092630;28;19908;-82
2024/01/11 13:25:58;;;;;;;;;;;13.60;99.90;;;;;;5094063;28;19912;-82
2024/01/11 13:28:24;;;;;;;;;;;13.60;99.90;;;;;;5093973;28;19908;-81
2024/01/11 13:30:50;;;;;;;;;;;13.60;99.90;;;;;;5094503;28;19908;-81
2024/01/11 13:33:17;;;;;;;;;;;13.50;99.90;;;;;;5094231;28;19950;-81
2024/01/11 13:35:43;;;;;;;;;;;13.40;99.90;;;;;;5093896;28;19955;-82
2024/01/11 13:38:09;;;;;;;;;;;13.30;99.90;;;;;;5093899;28;20356;-82
2024/01/11 13:40:35;;;;;;;;;;;13.30;99.90;;;;;;5093228;28;19920;-81
2024/01/11 13:43:02;;;;;;;;;;;13.20;99.90;;;;;;5092152;28;19923;-80
2024/01/11 13:45:29;;;;;;;;;;;13.30;99.90;;;;;;5093714;28;19915;-81
2024/01/11 13:47:55;;;;;;;;;;;13.30;99.90;;;;;;5094382;28;19909;-81
2024/01/11 13:50:22;;;;;;;;;;;13.30;99.90;;;;;;5093719;28;20272;-79
2024/01/11 13:52:48;;;;;;;;;;;13.30;99.90;;;;;;5091768;28;20276;-79
2024/01/11 13:55:14;;;;;;;;;;;13.30;99.90;;;;;;5093133;28;19959;-83
2024/01/11 13:57:41;;;;;;;;;;;13.30;99.90;;;;;;5093037;28;20338;-83
2024/01/11 14:00:10;;;;;;;;;;;13.40;99.90;;;;;;5093374;28;19953;-83
2024/01/11 14:02:36;;;;;;;;;;;13.30;99.90;;;;;;5093252;28;19927;-82
2024/01/11 14:05:03;;;;;;;;;;;13.20;99.90;;;;;;5091762;28;19953;-82
2024/01/11 14:07:30;;;;;;;;;;;13.20;99.90;;;;;;5091803;28;19916;-82
2024/01/11 14:09:56;;;;;;;;;;;13.20;99.90;;;;;;5093190;28;19912;-78
2024/01/11 14:12:22;;;;;;;;;;;13.20;99.90;;;;;;5093373;28;19908;-82